This is the latest recevied weather packets stored in our database for station/object HI6LT. If no packets are shown the sender has not sent any weather packets the latest 10 day(s).
| Time | Temp. | Humidity | Pressure | Rain* | Wind** | Luminosity | Snow |
|---|---|---|---|---|---|---|---|
| 1777514785 | 16.11° C | 99% | 1033.8 hPa | 0 mm | - | - | - |
| 1777514576 | 14.44° C | 99% | 1033.7 hPa | 0 mm | - | - | - |
| 1777513307 | 16.11° C | 99% | 1033 hPa | 0 mm | - | - | - |
| 1777513305 | 14.44° C | 98% | 1034.1 hPa | 0 mm | - | - | - |
| 1777511873 | 15° C | 98% | 1033.8 hPa | 0 mm | - | - | - |
| 1777511503 | 15.56° C | 98% | 1033.9 hPa | 0 mm | - | - | - |
| 1777511039 | 16.11° C | 98% | 1032.7 hPa | 0 mm | - | - | - |
| 1777509702 | 16.11° C | 99% | 1033.8 hPa | 0 mm | - | - | - |
| 1777509171 | 16.11° C | 99% | 1033.6 hPa | 0 mm | - | - | - |
| 1777509053 | 16.11° C | 98% | 1032.5 hPa | 0 mm | - | - | - |
| 1777507901 | 16.11° C | 99% | 1033 hPa | 0 mm | - | - | - |
| 1777507420 | 16.11° C | 98% | 1031.9 hPa | 0 mm | - | - | - |
| 1777506480 | 15.56° C | 98% | 1032.8 hPa | 0 mm | - | - | - |
| 1777506240 | 16.67° C | 98% | 1031.7 hPa | 0 mm | - | - | - |
| 1777506100 | 16.11° C | 98% | 1032.7 hPa | 0 mm | - | - | - |
| 1777504440 | 16.67° C | 97% | 1031.4 hPa | 0 mm | - | - | - |
| 1777504298 | 16.11° C | 98% | 1032.5 hPa | 0 mm | - | - | - |
| 1777503777 | 16.67° C | 98% | 1032.5 hPa | 0 mm | - | - | - |
| 1777502623 | 17.22° C | 93% | 1031.5 hPa | 0 mm | - | - | - |
| 1777502497 | 16.11° C | 98% | 1031.9 hPa | 0 mm | - | - | - |
| 1777501074 | 16.67° C | 98% | 1031.7 hPa | 0 mm | - | - | - |
| 1777500704 | 16.67° C | 98% | 1031.7 hPa | 0 mm | - | - | - |
| 1777499299 | 18.89° C | 89% | 1031.5 hPa | 0 mm | - | - | - |
| 1777498903 | 16.67° C | 97% | 1031.4 hPa | 0 mm | - | - | - |
| 1777498372 | 16.67° C | 96% | 1031.4 hPa | 0 mm | - | - | - |
* Rain latest hour (hover to see other rain measurements)
** Current wind speed in m/s (hover to see current wind gust speed)